sensor_id;sensor_type;location;lat;lon;timestamp;temperature;humidity
3226;DHT22;1625;49.884;8.666;2022-07-03T01:59:29;19.00;99.90
3226;DHT22;1625;49.884;8.666;2022-07-03T02:02:14;19.00;99.90
3226;DHT22;1625;49.884;8.666;2022-07-03T02:05:34;18.90;99.90
3226;DHT22;1625;49.884;8.666;2022-07-03T02:10:36;18.90;99.90
3226;DHT22;1625;49.884;8.666;2022-07-03T02:13:08;18.90;99.90
3226;DHT22;1625;49.884;8.666;2022-07-03T02:15:37;18.80;99.90
3226;DHT22;1625;49.884;8.666;2022-07-03T02:18:27;18.80;99.90
3226;DHT22;1625;49.884;8.666;2022-07-03T02:21:15;18.80;99.90
3226;DHT22;1625;49.884;8.666;2022-07-03T02:26:41;18.80;99.90
3226;DHT22;1625;49.884;8.666;2022-07-03T02:29:12;18.70;99.90
3226;DHT22;1625;49.884;8.666;2022-07-03T02:31:44;18.70;99.90
3226;DHT22;1625;49.884;8.666;2022-07-03T02:34:16;18.70;99.90
3226;DHT22;1625;49.884;8.666;2022-07-03T02:36:46;18.70;99.90
3226;DHT22;1625;49.884;8.666;2022-07-03T02:39:20;18.70;99.90
3226;DHT22;1625;49.884;8.666;2022-07-03T02:41:53;18.70;99.90
3226;DHT22;1625;49.884;8.666;2022-07-03T02:44:44;18.70;99.90
3226;DHT22;1625;49.884;8.666;2022-07-03T02:47:37;18.60;99.90
3226;DHT22;1625;49.884;8.666;2022-07-03T02:50:11;18.50;99.90
3226;DHT22;1625;49.884;8.666;2022-07-03T02:58:04;18.40;99.90
3226;DHT22;1625;49.884;8.666;2022-07-03T03:00:33;18.40;99.90
3226;DHT22;1625;49.884;8.666;2022-07-03T03:03:01;18.40;99.90
3226;DHT22;1625;49.884;8.666;2022-07-03T03:05:46;18.40;99.90
3226;DHT22;1625;49.884;8.666;2022-07-03T03:08:35;18.40;99.90
3226;DHT22;1625;49.884;8.666;2022-07-03T03:11:12;18.30;99.90
3226;DHT22;1625;49.884;8.666;2022-07-03T03:13:46;18.20;99.90
3226;DHT22;1625;49.884;8.666;2022-07-03T03:16:14;18.10;99.90
3226;DHT22;1625;49.884;8.666;2022-07-03T03:18:41;18.10;99.90
3226;DHT22;1625;49.884;8.666;2022-07-03T03:21:11;18.10;99.90
3226;DHT22;1625;49.884;8.666;2022-07-03T03:23:43;18.10;99.90
3226;DHT22;1625;49.884;8.666;2022-07-03T03:26:13;18.00;99.90
3226;DHT22;1625;49.884;8.666;2022-07-03T03:28:39;17.90;99.90
3226;DHT22;1625;49.884;8.666;2022-07-03T03:31:06;17.90;99.90
3226;DHT22;1625;49.884;8.666;2022-07-03T03:33:40;17.90;99.90
3226;DHT22;1625;49.884;8.666;2022-07-03T03:36:08;17.90;99.90
3226;DHT22;1625;49.884;8.666;2022-07-03T03:38:34;17.90;99.90
3226;DHT22;1625;49.884;8.666;2022-07-03T03:41:01;17.90;99.90
3226;DHT22;1625;49.884;8.666;2022-07-03T03:43:27;17.90;99.90
3226;DHT22;1625;49.884;8.666;2022-07-03T03:45:53;17.90;99.90
3226;DHT22;1625;49.884;8.666;2022-07-03T03:48:18;17.90;99.90
3226;DHT22;1625;49.884;8.666;2022-07-03T03:50:44;17.90;99.90
3226;DHT22;1625;49.884;8.666;2022-07-03T03:53:11;17.80;99.90
3226;DHT22;1625;49.884;8.666;2022-07-03T03:55:37;17.70;99.90
3226;DHT22;1625;49.884;8.666;2022-07-03T03:58:02;17.60;99.90
3226;DHT22;1625;49.884;8.666;2022-07-03T04:00:30;17.70;99.90
3226;DHT22;1625;49.884;8.666;2022-07-03T04:02:55;17.70;99.90
3226;DHT22;1625;49.884;8.666;2022-07-03T04:05:21;17.60;99.90
3226;DHT22;1625;49.884;8.666;2022-07-03T04:07:47;17.60;99.90
3226;DHT22;1625;49.884;8.666;2022-07-03T04:10:12;17.70;99.90
3226;DHT22;1625;49.884;8.666;2022-07-03T04:12:38;17.60;99.90
3226;DHT22;1625;49.884;8.666;2022-07-03T04:15:04;17.60;99.90
3226;DHT22;1625;49.884;8.666;2022-07-03T04:17:29;17.60;99.90
3226;DHT22;1625;49.884;8.666;2022-07-03T04:19:55;17.60;99.90
3226;DHT22;1625;49.884;8.666;2022-07-03T04:22:21;17.50;99.90
3226;DHT22;1625;49.884;8.666;2022-07-03T04:24:46;17.50;99.90
3226;DHT22;1625;49.884;8.666;2022-07-03T04:27:12;17.50;99.90
3226;DHT22;1625;49.884;8.666;2022-07-03T04:29:37;17.50;99.90
3226;DHT22;1625;49.884;8.666;2022-07-03T04:32:03;17.50;99.90
3226;DHT22;1625;49.884;8.666;2022-07-03T04:34:29;17.60;99.90
3226;DHT22;1625;49.884;8.666;2022-07-03T04:36:54;17.60;99.90
3226;DHT22;1625;49.884;8.666;2022-07-03T04:39:20;17.60;99.90
3226;DHT22;1625;49.884;8.666;2022-07-03T04:41:45;17.70;99.90
3226;DHT22;1625;49.884;8.666;2022-07-03T04:44:11;17.70;99.90
3226;DHT22;1625;49.884;8.666;2022-07-03T04:46:36;17.70;99.90
3226;DHT22;1625;49.884;8.666;2022-07-03T04:49:02;17.80;99.90
3226;DHT22;1625;49.884;8.666;2022-07-03T04:51:28;17.80;99.90
3226;DHT22;1625;49.884;8.666;2022-07-03T04:53:53;17.80;99.90
3226;DHT22;1625;49.884;8.666;2022-07-03T04:56:19;18.00;99.90
3226;DHT22;1625;49.884;8.666;2022-07-03T04:58:45;18.00;99.90
3226;DHT22;1625;49.884;8.666;2022-07-03T05:01:10;18.10;99.90
3226;DHT22;1625;49.884;8.666;2022-07-03T05:03:36;18.20;99.90
3226;DHT22;1625;49.884;8.666;2022-07-03T05:06:02;18.30;99.90
3226;DHT22;1625;49.884;8.666;2022-07-03T05:08:27;18.40;99.90
3226;DHT22;1625;49.884;8.666;2022-07-03T05:10:53;18.50;99.90
3226;DHT22;1625;49.884;8.666;2022-07-03T05:13:19;18.50;99.90
3226;DHT22;1625;49.884;8.666;2022-07-03T05:15:44;18.70;99.90
3226;DHT22;1625;49.884;8.666;2022-07-03T05:18:10;18.70;99.90
3226;DHT22;1625;49.884;8.666;2022-07-03T05:20:35;18.80;99.90
3226;DHT22;1625;49.884;8.666;2022-07-03T05:23:02;18.90;99.90
3226;DHT22;1625;49.884;8.666;2022-07-03T05:25:29;19.00;99.90
3226;DHT22;1625;49.884;8.666;2022-07-03T05:27:55;19.00;99.90
3226;DHT22;1625;49.884;8.666;2022-07-03T05:30:22;19.10;99.90
3226;DHT22;1625;49.884;8.666;2022-07-03T05:32:48;19.10;99.90
3226;DHT22;1625;49.884;8.666;2022-07-03T05:35:14;19.20;99.90
3226;DHT22;1625;49.884;8.666;2022-07-03T05:37:40;19.30;99.90
3226;DHT22;1625;49.884;8.666;2022-07-03T05:40:07;19.20;99.90
3226;DHT22;1625;49.884;8.666;2022-07-03T05:42:33;19.30;99.90
3226;DHT22;1625;49.884;8.666;2022-07-03T05:44:59;19.40;99.90
3226;DHT22;1625;49.884;8.666;2022-07-03T05:47:25;19.50;99.90
3226;DHT22;1625;49.884;8.666;2022-07-03T05:49:50;19.60;99.90
3226;DHT22;1625;49.884;8.666;2022-07-03T05:52:16;19.60;99.90
3226;DHT22;1625;49.884;8.666;2022-07-03T05:54:42;19.60;99.90
3226;DHT22;1625;49.884;8.666;2022-07-03T05:57:07;19.70;99.90
3226;DHT22;1625;49.884;8.666;2022-07-03T05:59:33;19.80;99.90
3226;DHT22;1625;49.884;8.666;2022-07-03T06:01:59;19.90;99.90
3226;DHT22;1625;49.884;8.666;2022-07-03T06:04:24;19.90;99.90
3226;DHT22;1625;49.884;8.666;2022-07-03T06:06:50;19.90;99.90
3226;DHT22;1625;49.884;8.666;2022-07-03T06:09:15;19.90;99.90
3226;DHT22;1625;49.884;8.666;2022-07-03T06:11:41;19.90;99.90
3226;DHT22;1625;49.884;8.666;2022-07-03T06:14:06;20.10;99.90
3226;DHT22;1625;49.884;8.666;2022-07-03T06:16:32;20.20;99.90
3226;DHT22;1625;49.884;8.666;2022-07-03T06:18:58;20.20;99.90
3226;DHT22;1625;49.884;8.666;2022-07-03T06:21:24;20.20;99.90
3226;DHT22;1625;49.884;8.666;2022-07-03T06:23:50;20.30;99.90
3226;DHT22;1625;49.884;8.666;2022-07-03T06:26:16;20.40;99.90
3226;DHT22;1625;49.884;8.666;2022-07-03T06:28:42;20.50;99.90
3226;DHT22;1625;49.884;8.666;2022-07-03T06:31:10;20.50;99.90
3226;DHT22;1625;49.884;8.666;2022-07-03T06:33:36;20.50;99.90
3226;DHT22;1625;49.884;8.666;2022-07-03T06:36:02;20.60;99.90
3226;DHT22;1625;49.884;8.666;2022-07-03T06:38:27;20.70;99.90
3226;DHT22;1625;49.884;8.666;2022-07-03T06:40:53;20.70;99.90
3226;DHT22;1625;49.884;8.666;2022-07-03T06:43:18;20.90;99.90
3226;DHT22;1625;49.884;8.666;2022-07-03T06:45:44;21.00;99.90
3226;DHT22;1625;49.884;8.666;2022-07-03T06:48:09;21.00;99.90
3226;DHT22;1625;49.884;8.666;2022-07-03T06:50:35;21.10;99.90
3226;DHT22;1625;49.884;8.666;2022-07-03T06:53:01;21.10;99.90
3226;DHT22;1625;49.884;8.666;2022-07-03T06:55:27;21.20;99.90
3226;DHT22;1625;49.884;8.666;2022-07-03T06:57:53;21.30;99.90
3226;DHT22;1625;49.884;8.666;2022-07-03T07:00:18;21.30;99.90
3226;DHT22;1625;49.884;8.666;2022-07-03T07:02:44;21.40;99.90
3226;DHT22;1625;49.884;8.666;2022-07-03T07:05:10;21.40;99.90
3226;DHT22;1625;49.884;8.666;2022-07-03T07:07:35;21.50;99.90
3226;DHT22;1625;49.884;8.666;2022-07-03T07:10:01;21.50;99.90
3226;DHT22;1625;49.884;8.666;2022-07-03T07:12:26;21.60;99.90
3226;DHT22;1625;49.884;8.666;2022-07-03T07:14:52;21.70;99.90
3226;DHT22;1625;49.884;8.666;2022-07-03T07:17:18;21.70;99.90
3226;DHT22;1625;49.884;8.666;2022-07-03T07:19:43;21.80;99.90
3226;DHT22;1625;49.884;8.666;2022-07-03T07:22:09;21.80;99.90
3226;DHT22;1625;49.884;8.666;2022-07-03T07:24:34;21.80;99.90
3226;DHT22;1625;49.884;8.666;2022-07-03T07:27:00;21.90;99.90
3226;DHT22;1625;49.884;8.666;2022-07-03T07:29:26;21.90;99.90
3226;DHT22;1625;49.884;8.666;2022-07-03T07:31:51;22.00;99.90
3226;DHT22;1625;49.884;8.666;2022-07-03T07:34:17;22.00;99.90
3226;DHT22;1625;49.884;8.666;2022-07-03T07:36:43;22.00;99.90
3226;DHT22;1625;49.884;8.666;2022-07-03T07:39:08;22.10;99.90
3226;DHT22;1625;49.884;8.666;2022-07-03T07:41:35;22.10;99.90
3226;DHT22;1625;49.884;8.666;2022-07-03T07:44:01;22.30;99.90
3226;DHT22;1625;49.884;8.666;2022-07-03T07:46:27;22.30;99.90
3226;DHT22;1625;49.884;8.666;2022-07-03T07:48:52;22.40;99.90
3226;DHT22;1625;49.884;8.666;2022-07-03T07:51:18;22.50;99.90
3226;DHT22;1625;49.884;8.666;2022-07-03T07:53:43;22.50;99.90
3226;DHT22;1625;49.884;8.666;2022-07-03T07:56:09;22.50;99.90
3226;DHT22;1625;49.884;8.666;2022-07-03T07:58:35;22.60;99.90
3226;DHT22;1625;49.884;8.666;2022-07-03T08:01:01;22.60;99.90
3226;DHT22;1625;49.884;8.666;2022-07-03T08:03:49;22.60;99.90
3226;DHT22;1625;49.884;8.666;2022-07-03T08:06:33;22.50;99.90
3226;DHT22;1625;49.884;8.666;2022-07-03T08:08:59;22.60;99.90
3226;DHT22;1625;49.884;8.666;2022-07-03T08:11:25;22.70;99.90
3226;DHT22;1625;49.884;8.666;2022-07-03T08:13:50;22.80;99.90
3226;DHT22;1625;49.884;8.666;2022-07-03T08:16:16;22.80;99.90
3226;DHT22;1625;49.884;8.666;2022-07-03T08:18:42;22.80;99.90
3226;DHT22;1625;49.884;8.666;2022-07-03T08:21:08;22.80;99.90
3226;DHT22;1625;49.884;8.666;2022-07-03T08:23:34;22.80;99.90
3226;DHT22;1625;49.884;8.666;2022-07-03T08:25:59;22.90;99.90
3226;DHT22;1625;49.884;8.666;2022-07-03T08:28:26;22.90;99.90
3226;DHT22;1625;49.884;8.666;2022-07-03T08:30:51;23.00;99.90
3226;DHT22;1625;49.884;8.666;2022-07-03T08:33:17;23.10;99.90
3226;DHT22;1625;49.884;8.666;2022-07-03T08:35:43;23.00;99.90
3226;DHT22;1625;49.884;8.666;2022-07-03T08:38:08;23.10;99.90
3226;DHT22;1625;49.884;8.666;2022-07-03T08:40:34;23.10;99.90
3226;DHT22;1625;49.884;8.666;2022-07-03T08:43:00;23.10;99.90
3226;DHT22;1625;49.884;8.666;2022-07-03T08:45:29;23.20;99.90
3226;DHT22;1625;49.884;8.666;2022-07-03T08:47:57;23.20;99.90
3226;DHT22;1625;49.884;8.666;2022-07-03T08:50:24;23.30;99.90
3226;DHT22;1625;49.884;8.666;2022-07-03T08:52:49;23.40;99.90
3226;DHT22;1625;49.884;8.666;2022-07-03T08:55:16;23.50;99.90
3226;DHT22;1625;49.884;8.666;2022-07-03T08:57:43;23.60;99.90
3226;DHT22;1625;49.884;8.666;2022-07-03T09:00:12;23.70;99.90
3226;DHT22;1625;49.884;8.666;2022-07-03T09:02:39;23.70;99.90
3226;DHT22;1625;49.884;8.666;2022-07-03T09:05:07;23.80;99.90
3226;DHT22;1625;49.884;8.666;2022-07-03T09:07:39;23.80;99.90
3226;DHT22;1625;49.884;8.666;2022-07-03T09:10:07;23.80;99.90
3226;DHT22;1625;49.884;8.666;2022-07-03T09:12:34;23.90;99.90
3226;DHT22;1625;49.884;8.666;2022-07-03T09:15:00;23.90;99.90
3226;DHT22;1625;49.884;8.666;2022-07-03T09:17:27;23.90;99.90
3226;DHT22;1625;49.884;8.666;2022-07-03T09:19:53;23.90;99.90
3226;DHT22;1625;49.884;8.666;2022-07-03T09:22:30;24.00;99.90
3226;DHT22;1625;49.884;8.666;2022-07-03T09:27:33;24.20;99.90
3226;DHT22;1625;49.884;8.666;2022-07-03T09:30:04;24.20;99.90
3226;DHT22;1625;49.884;8.666;2022-07-03T09:32:41;24.20;99.90
3226;DHT22;1625;49.884;8.666;2022-07-03T09:35:17;24.30;99.90
3226;DHT22;1625;49.884;8.666;2022-07-03T09:38:02;24.40;99.90
3226;DHT22;1625;49.884;8.666;2022-07-03T09:40:48;24.40;99.90
3226;DHT22;1625;49.884;8.666;2022-07-03T09:43:14;24.50;99.90
3226;DHT22;1625;49.884;8.666;2022-07-03T09:45:57;24.60;99.90
3226;DHT22;1625;49.884;8.666;2022-07-03T09:50:49;24.60;99.90
3226;DHT22;1625;49.884;8.666;2022-07-03T09:53:46;24.60;99.90
3226;DHT22;1625;49.884;8.666;2022-07-03T09:56:12;24.70;99.90
3226;DHT22;1625;49.884;8.666;2022-07-03T09:58:38;24.60;99.90
3226;DHT22;1625;49.884;8.666;2022-07-03T10:01:18;24.60;99.90
3226;DHT22;1625;49.884;8.666;2022-07-03T10:03:44;24.60;99.90
3226;DHT22;1625;49.884;8.666;2022-07-03T10:06:10;24.70;99.90
3226;DHT22;1625;49.884;8.666;2022-07-03T10:08:36;24.60;99.90
3226;DHT22;1625;49.884;8.666;2022-07-03T10:11:03;24.60;99.90
3226;DHT22;1625;49.884;8.666;2022-07-03T10:13:30;24.80;99.90
3226;DHT22;1625;49.884;8.666;2022-07-03T10:16:07;24.90;99.90
3226;DHT22;1625;49.884;8.666;2022-07-03T10:18:37;24.80;99.90
3226;DHT22;1625;49.884;8.666;2022-07-03T10:21:08;25.10;99.90
3226;DHT22;1625;49.884;8.666;2022-07-03T10:26:08;25.20;99.90
3226;DHT22;1625;49.884;8.666;2022-07-03T10:31:02;25.30;99.90
3226;DHT22;1625;49.884;8.666;2022-07-03T10:33:33;25.30;99.90
3226;DHT22;1625;49.884;8.666;2022-07-03T10:36:06;25.60;99.90
3226;DHT22;1625;49.884;8.666;2022-07-03T10:38:39;25.50;99.90
3226;DHT22;1625;49.884;8.666;2022-07-03T10:41:30;25.50;99.90
3226;DHT22;1625;49.884;8.666;2022-07-03T10:44:19;25.50;99.90
3226;DHT22;1625;49.884;8.666;2022-07-03T10:47:04;25.70;99.90
3226;DHT22;1625;49.884;8.666;2022-07-03T10:51:59;26.40;99.90
3226;DHT22;1625;49.884;8.666;2022-07-03T11:02:40;26.30;99.90
3226;DHT22;1625;49.884;8.666;2022-07-03T11:05:24;26.40;99.90
3226;DHT22;1625;49.884;8.666;2022-07-03T11:13:04;26.60;99.90
3226;DHT22;1625;49.884;8.666;2022-07-03T11:18:08;26.50;99.90
3226;DHT22;1625;49.884;8.666;2022-07-03T11:25:59;26.40;99.90
3226;DHT22;1625;49.884;8.666;2022-07-03T11:44:14;26.90;96.10
3226;DHT22;1625;49.884;8.666;2022-07-03T14:22:50;33.70;58.50
3226;DHT22;1625;49.884;8.666;2022-07-03T14:25:15;33.10;60.20
3226;DHT22;1625;49.884;8.666;2022-07-03T14:27:41;32.70;62.00
3226;DHT22;1625;49.884;8.666;2022-07-03T14:30:25;32.40;61.60
3226;DHT22;1625;49.884;8.666;2022-07-03T14:33:09;32.40;61.40
3226;DHT22;1625;49.884;8.666;2022-07-03T14:35:35;35.60;59.00
3226;DHT22;1625;49.884;8.666;2022-07-03T14:38:01;41.40;56.50
3226;DHT22;1625;49.884;8.666;2022-07-03T14:40:26;44.60;51.60
3226;DHT22;1625;49.884;8.666;2022-07-03T14:42:52;46.70;47.90
3226;DHT22;1625;49.884;8.666;2022-07-03T14:45:17;48.60;44.20
3226;DHT22;1625;49.884;8.666;2022-07-03T14:47:43;49.70;42.60
3226;DHT22;1625;49.884;8.666;2022-07-03T14:50:09;50.90;40.70
3226;DHT22;1625;49.884;8.666;2022-07-03T14:52:35;52.50;40.20
3226;DHT22;1625;49.884;8.666;2022-07-03T14:55:00;53.00;38.50
3226;DHT22;1625;49.884;8.666;2022-07-03T14:57:36;48.00;37.00
3226;DHT22;1625;49.884;8.666;2022-07-03T15:05:28;46.30;41.10
3226;DHT22;1625;49.884;8.666;2022-07-03T15:10:32;51.30;35.80
3226;DHT22;1625;49.884;8.666;2022-07-03T15:13:00;45.80;37.10
3226;DHT22;1625;49.884;8.666;2022-07-03T15:15:25;41.90;38.90
3226;DHT22;1625;49.884;8.666;2022-07-03T15:17:53;39.30;40.40
3226;DHT22;1625;49.884;8.666;2022-07-03T15:20:20;40.70;41.40
3226;DHT22;1625;49.884;8.666;2022-07-03T15:22:47;46.90;39.20
3226;DHT22;1625;49.884;8.666;2022-07-03T15:25:16;51.00;37.00
3226;DHT22;1625;49.884;8.666;2022-07-03T15:27:51;50.90;36.30
3226;DHT22;1625;49.884;8.666;2022-07-03T15:30:20;47.70;36.60
3226;DHT22;1625;49.884;8.666;2022-07-03T15:32:47;45.20;36.30
3226;DHT22;1625;49.884;8.666;2022-07-03T15:35:17;48.20;37.40
3226;DHT22;1625;49.884;8.666;2022-07-03T15:40:48;51.40;34.20
3226;DHT22;1625;49.884;8.666;2022-07-03T15:48:52;56.40;32.90
3226;DHT22;1625;49.884;8.666;2022-07-03T15:51:28;57.80;32.80
3226;DHT22;1625;49.884;8.666;2022-07-03T15:53:57;57.20;32.30
3226;DHT22;1625;49.884;8.666;2022-07-03T15:56:28;54.80;32.40
3226;DHT22;1625;49.884;8.666;2022-07-03T15:59:00;51.70;32.30
3226;DHT22;1625;49.884;8.666;2022-07-03T16:01:28;46.70;33.90
3226;DHT22;1625;49.884;8.666;2022-07-03T16:04:28;47.80;35.30
3226;DHT22;1625;49.884;8.666;2022-07-03T16:06:54;47.40;33.90
3226;DHT22;1625;49.884;8.666;2022-07-03T16:09:20;45.00;35.20
3226;DHT22;1625;49.884;8.666;2022-07-03T16:11:46;42.90;36.40
3226;DHT22;1625;49.884;8.666;2022-07-03T16:14:12;40.90;37.40
3226;DHT22;1625;49.884;8.666;2022-07-03T16:16:39;39.60;38.70
3226;DHT22;1625;49.884;8.666;2022-07-03T16:19:06;38.60;39.50
3226;DHT22;1625;49.884;8.666;2022-07-03T16:21:32;37.70;40.30
3226;DHT22;1625;49.884;8.666;2022-07-03T16:24:03;38.20;40.70
3226;DHT22;1625;49.884;8.666;2022-07-03T16:26:29;37.80;39.90
3226;DHT22;1625;49.884;8.666;2022-07-03T16:28:55;39.40;39.30
3226;DHT22;1625;49.884;8.666;2022-07-03T16:31:25;38.80;39.30
3226;DHT22;1625;49.884;8.666;2022-07-03T16:34:09;37.40;40.40
3226;DHT22;1625;49.884;8.666;2022-07-03T16:36:41;36.50;40.80
3226;DHT22;1625;49.884;8.666;2022-07-03T16:39:11;35.70;41.50
3226;DHT22;1625;49.884;8.666;2022-07-03T16:41:38;34.90;42.80
3226;DHT22;1625;49.884;8.666;2022-07-03T16:44:06;34.50;43.20
3226;DHT22;1625;49.884;8.666;2022-07-03T16:46:34;34.20;42.50
3226;DHT22;1625;49.884;8.666;2022-07-03T16:49:01;33.70;42.90
3226;DHT22;1625;49.884;8.666;2022-07-03T16:51:33;33.40;43.30
3226;DHT22;1625;49.884;8.666;2022-07-03T16:54:00;33.10;43.60
3226;DHT22;1625;49.884;8.666;2022-07-03T16:56:27;33.00;43.70
3226;DHT22;1625;49.884;8.666;2022-07-03T16:58:54;34.00;43.60
3226;DHT22;1625;49.884;8.666;2022-07-03T17:01:20;33.50;43.50
3226;DHT22;1625;49.884;8.666;2022-07-03T17:03:47;33.50;43.50
3226;DHT22;1625;49.884;8.666;2022-07-03T17:06:13;33.20;43.40
3226;DHT22;1625;49.884;8.666;2022-07-03T17:08:39;33.10;44.00
3226;DHT22;1625;49.884;8.666;2022-07-03T17:11:05;33.80;42.90
3226;DHT22;1625;49.884;8.666;2022-07-03T17:13:31;33.40;42.90
3226;DHT22;1625;49.884;8.666;2022-07-03T17:16:01;33.30;43.20
3226;DHT22;1625;49.884;8.666;2022-07-03T17:18:36;32.90;43.50
3226;DHT22;1625;49.884;8.666;2022-07-03T17:21:05;32.70;44.60
3226;DHT22;1625;49.884;8.666;2022-07-03T17:23:32;32.70;44.30
3226;DHT22;1625;49.884;8.666;2022-07-03T17:26:02;33.30;43.90
3226;DHT22;1625;49.884;8.666;2022-07-03T17:28:34;33.90;43.80
3226;DHT22;1625;49.884;8.666;2022-07-03T17:31:05;33.70;43.20
3226;DHT22;1625;49.884;8.666;2022-07-03T17:33:32;33.70;43.00
3226;DHT22;1625;49.884;8.666;2022-07-03T17:36:07;33.60;43.30
3226;DHT22;1625;49.884;8.666;2022-07-03T17:38:35;33.60;43.60
3226;DHT22;1625;49.884;8.666;2022-07-03T17:41:01;33.60;44.10
3226;DHT22;1625;49.884;8.666;2022-07-03T17:43:28;33.30;43.90
3226;DHT22;1625;49.884;8.666;2022-07-03T17:45:56;33.00;43.80
3226;DHT22;1625;49.884;8.666;2022-07-03T17:48:23;32.80;44.20
3226;DHT22;1625;49.884;8.666;2022-07-03T17:50:50;32.70;44.50
3226;DHT22;1625;49.884;8.666;2022-07-03T17:53:15;32.60;44.70
3226;DHT22;1625;49.884;8.666;2022-07-03T17:55:43;32.80;45.00
3226;DHT22;1625;49.884;8.666;2022-07-03T17:58:09;32.60;44.70
3226;DHT22;1625;49.884;8.666;2022-07-03T18:00:35;32.50;44.60
3226;DHT22;1625;49.884;8.666;2022-07-03T18:03:01;32.50;44.30
3226;DHT22;1625;49.884;8.666;2022-07-03T18:05:26;32.30;44.60
3226;DHT22;1625;49.884;8.666;2022-07-03T18:08:09;32.30;44.40
3226;DHT22;1625;49.884;8.666;2022-07-03T18:16:12;32.50;44.20
3226;DHT22;1625;49.884;8.666;2022-07-03T18:18:41;33.10;44.30
3226;DHT22;1625;49.884;8.666;2022-07-03T18:21:08;32.80;44.10
3226;DHT22;1625;49.884;8.666;2022-07-03T18:23:46;32.60;45.00
3226;DHT22;1625;49.884;8.666;2022-07-03T18:26:19;32.40;44.90
3226;DHT22;1625;49.884;8.666;2022-07-03T18:28:46;32.10;46.00
3226;DHT22;1625;49.884;8.666;2022-07-03T18:31:15;31.70;45.60
3226;DHT22;1625;49.884;8.666;2022-07-03T18:33:43;31.30;46.00
3226;DHT22;1625;49.884;8.666;2022-07-03T18:36:10;31.10;46.80
3226;DHT22;1625;49.884;8.666;2022-07-03T18:38:38;30.80;46.90
3226;DHT22;1625;49.884;8.666;2022-07-03T18:41:06;30.90;47.10
3226;DHT22;1625;49.884;8.666;2022-07-03T18:43:33;30.90;46.90
3226;DHT22;1625;49.884;8.666;2022-07-03T18:45:59;30.70;47.30
3226;DHT22;1625;49.884;8.666;2022-07-03T18:48:25;30.70;47.50
3226;DHT22;1625;49.884;8.666;2022-07-03T18:51:00;30.60;47.70
3226;DHT22;1625;49.884;8.666;2022-07-03T18:53:43;29.80;47.70
3226;DHT22;1625;49.884;8.666;2022-07-03T18:56:18;30.30;48.30
3226;DHT22;1625;49.884;8.666;2022-07-03T18:58:53;30.20;48.90
3226;DHT22;1625;49.884;8.666;2022-07-03T19:01:25;30.90;49.60
3226;DHT22;1625;49.884;8.666;2022-07-03T19:04:09;30.60;49.80
3226;DHT22;1625;49.884;8.666;2022-07-03T19:06:44;30.00;49.50
3226;DHT22;1625;49.884;8.666;2022-07-03T19:09:14;29.80;49.70
3226;DHT22;1625;49.884;8.666;2022-07-03T19:12:01;29.70;49.80
3226;DHT22;1625;49.884;8.666;2022-07-03T19:14:32;29.60;50.20
3226;DHT22;1625;49.884;8.666;2022-07-03T19:17:06;29.50;51.00
3226;DHT22;1625;49.884;8.666;2022-07-03T19:19:33;29.40;51.10
3226;DHT22;1625;49.884;8.666;2022-07-03T19:21:59;29.20;50.90
3226;DHT22;1625;49.884;8.666;2022-07-03T19:24:25;29.00;51.00
3226;DHT22;1625;49.884;8.666;2022-07-03T19:26:51;29.50;52.40
3226;DHT22;1625;49.884;8.666;2022-07-03T19:29:17;28.60;53.60
3226;DHT22;1625;49.884;8.666;2022-07-03T19:31:42;28.40;54.70
3226;DHT22;1625;49.884;8.666;2022-07-03T19:34:09;28.30;55.50
3226;DHT22;1625;49.884;8.666;2022-07-03T19:36:35;28.00;56.20
3226;DHT22;1625;49.884;8.666;2022-07-03T19:39:01;27.80;56.90
3226;DHT22;1625;49.884;8.666;2022-07-03T19:41:28;28.50;58.10
3226;DHT22;1625;49.884;8.666;2022-07-03T19:43:54;27.50;57.30
3226;DHT22;1625;49.884;8.666;2022-07-03T19:46:20;27.50;59.10
3226;DHT22;1625;49.884;8.666;2022-07-03T19:48:45;27.20;60.50
3226;DHT22;1625;49.884;8.666;2022-07-03T19:53:37;27.20;63.60
3226;DHT22;1625;49.884;8.666;2022-07-03T19:56:02;27.60;65.70
3226;DHT22;1625;49.884;8.666;2022-07-03T19:58:30;26.90;66.50
3226;DHT22;1625;49.884;8.666;2022-07-03T20:00:55;26.90;67.80
3226;DHT22;1625;49.884;8.666;2022-07-03T20:03:22;27.70;69.20
3226;DHT22;1625;49.884;8.666;2022-07-03T20:05:48;27.90;70.90
3226;DHT22;1625;49.884;8.666;2022-07-03T20:08:14;26.30;69.80
3226;DHT22;1625;49.884;8.666;2022-07-03T20:13:06;26.20;72.20
3226;DHT22;1625;49.884;8.666;2022-07-03T20:15:31;26.10;73.20
3226;DHT22;1625;49.884;8.666;2022-07-03T20:17:57;26.00;73.00
3226;DHT22;1625;49.884;8.666;2022-07-03T20:20:24;26.70;74.90
3226;DHT22;1625;49.884;8.666;2022-07-03T20:22:50;25.70;74.60
3226;DHT22;1625;49.884;8.666;2022-07-03T20:25:16;26.20;76.20
3226;DHT22;1625;49.884;8.666;2022-07-03T20:27:42;25.70;76.70
3226;DHT22;1625;49.884;8.666;2022-07-03T20:30:08;25.90;77.60
3226;DHT22;1625;49.884;8.666;2022-07-03T20:32:34;25.70;78.60
3226;DHT22;1625;49.884;8.666;2022-07-03T20:35:02;25.60;78.30
3226;DHT22;1625;49.884;8.666;2022-07-03T20:39:54;25.50;79.30
3226;DHT22;1625;49.884;8.666;2022-07-03T20:44:46;25.40;80.30
3226;DHT22;1625;49.884;8.666;2022-07-03T20:47:12;25.70;81.80
3226;DHT22;1625;49.884;8.666;2022-07-03T20:49:38;25.70;82.40
3226;DHT22;1625;49.884;8.666;2022-07-03T20:52:04;25.00;82.20
3226;DHT22;1625;49.884;8.666;2022-07-03T20:54:29;25.20;82.80
3226;DHT22;1625;49.884;8.666;2022-07-03T20:56:57;24.90;83.10
3226;DHT22;1625;49.884;8.666;2022-07-03T20:59:22;24.50;84.20
3226;DHT22;1625;49.884;8.666;2022-07-03T21:04:14;24.50;85.30
3226;DHT22;1625;49.884;8.666;2022-07-03T21:06:40;24.60;86.70
3226;DHT22;1625;49.884;8.666;2022-07-03T21:09:06;25.00;87.60
3226;DHT22;1625;49.884;8.666;2022-07-03T21:11:33;24.50;87.90
3226;DHT22;1625;49.884;8.666;2022-07-03T21:14:10;24.30;88.20
3226;DHT22;1625;49.884;8.666;2022-07-03T21:16:37;24.40;88.30
3226;DHT22;1625;49.884;8.666;2022-07-03T21:19:07;25.30;90.00
3226;DHT22;1625;49.884;8.666;2022-07-03T21:21:34;24.60;88.70
3226;DHT22;1625;49.884;8.666;2022-07-03T21:26:27;24.40;88.70
3226;DHT22;1625;49.884;8.666;2022-07-03T21:28:54;24.10;89.10
3226;DHT22;1625;49.884;8.666;2022-07-03T21:31:21;24.80;90.50
3226;DHT22;1625;49.884;8.666;2022-07-03T21:33:47;24.70;90.50
3226;DHT22;1625;49.884;8.666;2022-07-03T21:36:12;23.80;90.20
3226;DHT22;1625;49.884;8.666;2022-07-03T21:38:38;23.80;90.40
3226;DHT22;1625;49.884;8.666;2022-07-03T21:41:04;23.80;90.60
3226;DHT22;1625;49.884;8.666;2022-07-03T21:43:30;24.40;91.20
3226;DHT22;1625;49.884;8.666;2022-07-03T21:45:55;24.00;91.20
3226;DHT22;1625;49.884;8.666;2022-07-03T21:53:13;23.40;91.60
3226;DHT22;1625;49.884;8.666;2022-07-03T21:55:39;23.40;92.00
3226;DHT22;1625;49.884;8.666;2022-07-03T21:58:07;23.10;92.00
3226;DHT22;1625;49.884;8.666;2022-07-03T22:00:34;23.70;92.40
3226;DHT22;1625;49.884;8.666;2022-07-03T22:05:26;23.20;92.10
3226;DHT22;1625;49.884;8.666;2022-07-03T22:07:53;24.00;92.70
3226;DHT22;1625;49.884;8.666;2022-07-03T22:10:18;23.20;92.20
3226;DHT22;1625;49.884;8.666;2022-07-03T22:12:44;23.30;92.50
3226;DHT22;1625;49.884;8.666;2022-07-03T22:15:12;23.40;92.60
3226;DHT22;1625;49.884;8.666;2022-07-03T22:17:40;23.20;92.60
3226;DHT22;1625;49.884;8.666;2022-07-03T22:20:07;23.60;92.90
3226;DHT22;1625;49.884;8.666;2022-07-03T22:22:34;23.50;93.00
3226;DHT22;1625;49.884;8.666;2022-07-03T22:25:01;24.20;93.80
3226;DHT22;1625;49.884;8.666;2022-07-03T22:27:27;23.50;93.30
3226;DHT22;1625;49.884;8.666;2022-07-03T22:29:53;24.00;93.80